createdAt,value
2018-12-23T00:02:02.747Z,17.53
2018-12-23T00:04:31.067Z,18.03
2018-12-23T00:06:59.407Z,17.37
2018-12-23T00:09:28.101Z,18.03
2018-12-23T00:11:56.315Z,16.90
2018-12-23T00:14:24.709Z,18.50
2018-12-23T00:16:52.895Z,19.50
2018-12-23T00:19:21.203Z,17.30
2018-12-23T00:21:49.467Z,17.73
2018-12-23T00:24:17.736Z,19.70
2018-12-23T00:26:46.047Z,15.13
2018-12-23T00:29:14.267Z,19.27
2018-12-23T00:31:42.533Z,15.20
2018-12-23T00:34:10.727Z,16.77
2018-12-23T00:36:38.996Z,18.07
2018-12-23T00:39:07.739Z,17.97
2018-12-23T00:41:36.732Z,17.03
2018-12-23T00:44:05.097Z,14.40
2018-12-23T00:46:33.421Z,17.00
2018-12-23T00:49:01.650Z,17.90
2018-12-23T00:51:29.914Z,17.30
2018-12-23T00:53:58.223Z,17.33
2018-12-23T00:56:26.493Z,15.93
2018-12-23T00:58:54.796Z,18.53
2018-12-23T01:01:23.073Z,16.30
2018-12-23T01:03:51.299Z,19.17
2018-12-23T01:06:19.591Z,18.73
2018-12-23T01:08:47.850Z,19.13
2018-12-23T01:11:16.166Z,20.17
2018-12-23T01:13:44.371Z,17.03
2018-12-23T01:16:12.651Z,15.47
2018-12-23T01:18:40.833Z,19.33
2018-12-23T01:21:09.179Z,18.27
2018-12-23T01:23:37.441Z,20.50
2018-12-23T01:26:05.651Z,20.77
2018-12-23T01:28:33.877Z,20.60
2018-12-23T01:31:02.165Z,20.90
2018-12-23T01:33:30.455Z,21.70
2018-12-23T01:35:58.679Z,18.93
2018-12-23T01:38:26.857Z,21.90
2018-12-23T01:40:55.163Z,27.83
2018-12-23T01:43:23.404Z,25.43
2018-12-23T01:45:51.652Z,29.10
2018-12-23T01:48:19.857Z,23.60
2018-12-23T01:50:48.184Z,30.40
2018-12-23T01:53:16.460Z,25.37
2018-12-23T01:55:44.736Z,25.47
2018-12-23T01:58:12.952Z,24.07
2018-12-23T02:00:41.226Z,26.80
2018-12-23T02:03:09.388Z,28.70
2018-12-23T02:05:45.834Z,28.40
2018-12-23T02:08:07.976Z,28.53
2018-12-23T02:10:36.304Z,28.97
2018-12-23T02:13:04.659Z,26.60
2018-12-23T02:15:32.974Z,27.47
2018-12-23T02:18:01.164Z,25.67
2018-12-23T02:20:29.438Z,29.17
2018-12-23T02:22:57.730Z,24.77
2018-12-23T02:25:26.113Z,26.60
2018-12-23T02:27:54.350Z,29.30
2018-12-23T02:30:22.614Z,26.30
2018-12-23T02:32:50.936Z,32.23
2018-12-23T02:35:19.286Z,28.27
2018-12-23T02:37:47.447Z,29.50
2018-12-23T02:40:15.744Z,28.80
2018-12-23T02:42:44.008Z,25.33
2018-12-23T02:45:12.260Z,30.30
2018-12-23T02:47:40.494Z,29.20
2018-12-23T02:50:08.748Z,26.33
2018-12-23T02:52:36.932Z,24.90
2018-12-23T02:55:05.279Z,31.77
2018-12-23T02:57:33.458Z,27.00
2018-12-23T03:00:01.745Z,31.48
2018-12-23T03:02:30.024Z,29.10
2018-12-23T03:04:58.326Z,29.80
2018-12-23T03:07:26.653Z,33.67
2018-12-23T03:09:54.980Z,30.67
2018-12-23T03:12:23.338Z,29.90
2018-12-23T03:14:51.620Z,36.50
2018-12-23T03:17:19.902Z,38.30
2018-12-23T03:19:48.244Z,29.63
2018-12-23T03:22:16.479Z,32.40
2018-12-23T03:24:44.814Z,36.20
2018-12-23T03:27:13.134Z,29.17
2018-12-23T03:29:41.478Z,32.90
2018-12-23T03:32:09.794Z,34.77
2018-12-23T03:34:38.165Z,34.07
2018-12-23T03:37:06.334Z,33.67
2018-12-23T03:39:34.551Z,36.73
2018-12-23T03:42:02.784Z,30.97
2018-12-23T03:44:31.065Z,35.03
2018-12-23T03:46:59.381Z,32.67
2018-12-23T03:49:27.842Z,28.70
2018-12-23T03:51:56.082Z,30.53
2018-12-23T03:54:24.378Z,30.90
2018-12-23T03:56:52.577Z,31.67
2018-12-23T03:59:20.888Z,24.40
2018-12-23T04:01:49.378Z,25.37
2018-12-23T04:04:17.615Z,24.07
2018-12-23T04:06:46.002Z,25.13
2018-12-23T04:09:14.187Z,24.43
2018-12-23T04:11:42.436Z,24.73
2018-12-23T04:14:10.694Z,21.77
2018-12-23T04:16:38.933Z,20.40
2018-12-23T04:19:07.434Z,26.00
2018-12-23T04:21:35.719Z,24.03
2018-12-23T04:24:04.063Z,25.90
2018-12-23T04:26:32.371Z,25.77
2018-12-23T04:29:00.558Z,23.93
2018-12-23T04:31:28.750Z,19.63
2018-12-23T04:33:57.026Z,24.10
2018-12-23T04:36:33.830Z,22.53
2018-12-23T04:38:55.427Z,21.37
2018-12-23T04:41:23.696Z,20.33
2018-12-23T04:43:52.060Z,21.43
2018-12-23T04:46:20.257Z,18.80
2018-12-23T04:48:48.547Z,16.97
2018-12-23T04:51:16.835Z,23.20
2018-12-23T04:53:45.089Z,25.23
2018-12-23T04:56:13.326Z,21.30
2018-12-23T04:58:41.598Z,21.23
2018-12-23T05:01:09.809Z,21.10
2018-12-23T05:03:42.643Z,22.70
2018-12-23T05:06:08.263Z,24.73
2018-12-23T05:08:36.565Z,19.17
2018-12-23T05:11:04.777Z,25.40
2018-12-23T05:13:34.359Z,22.07
2018-12-23T05:16:02.914Z,20.97
2018-12-23T05:18:31.150Z,23.40
2018-12-23T05:20:59.413Z,21.37
2018-12-23T05:23:27.591Z,25.57
2018-12-23T05:25:55.807Z,21.47
2018-12-23T05:28:24.139Z,23.50
2018-12-23T05:30:52.388Z,19.37
2018-12-23T05:33:20.663Z,21.73
2018-12-23T05:35:48.981Z,22.63
2018-12-23T05:38:17.220Z,24.73
2018-12-23T05:40:45.665Z,25.27
2018-12-23T05:43:13.973Z,26.17
2018-12-23T05:45:42.239Z,25.70
2018-12-23T05:48:10.524Z,26.57
2018-12-23T05:50:38.763Z,23.20
2018-12-23T05:53:06.937Z,28.57
2018-12-23T05:55:34.334Z,25.20
2018-12-23T05:58:02.670Z,24.77
2018-12-23T06:00:30.839Z,26.00
2018-12-23T06:02:59.033Z,21.93
2018-12-23T06:05:27.239Z,23.10
2018-12-23T06:07:55.451Z,21.33
2018-12-23T06:10:23.707Z,23.37
2018-12-23T06:12:51.925Z,21.97
2018-12-23T06:15:20.195Z,24.20
2018-12-23T06:17:48.439Z,24.93
2018-12-23T06:20:16.597Z,27.00
2018-12-23T06:22:44.827Z,23.30
2018-12-23T06:25:12.996Z,27.00
2018-12-23T06:27:41.303Z,22.53
2018-12-23T06:30:09.563Z,25.00
2018-12-23T06:32:37.835Z,20.47
2018-12-23T06:35:06.317Z,23.67
2018-12-23T06:37:34.664Z,20.13
2018-12-23T06:40:03.211Z,23.90
2018-12-23T06:42:31.482Z,18.13
2018-12-23T06:44:59.837Z,21.83
2018-12-23T06:47:28.163Z,20.47
2018-12-23T06:49:56.518Z,23.40
2018-12-23T06:52:24.777Z,21.80
2018-12-23T06:54:53.041Z,26.07
2018-12-23T06:57:21.281Z,21.40
2018-12-23T06:59:50.091Z,26.20
2018-12-23T07:02:18.555Z,27.90
2018-12-23T07:04:46.818Z,22.17
2018-12-23T07:07:18.766Z,21.80
2018-12-23T07:09:45.219Z,23.57
2018-12-23T07:12:13.401Z,22.07
2018-12-23T07:14:41.652Z,30.33
2018-12-23T07:17:09.849Z,20.03
2018-12-23T07:19:38.015Z,24.27
2018-12-23T07:22:06.171Z,24.23
2018-12-23T07:24:34.416Z,23.80
2018-12-23T07:27:02.785Z,23.23
2018-12-23T07:29:31.087Z,19.07
2018-12-23T07:31:59.363Z,24.57
2018-12-23T07:34:27.602Z,18.73
2018-12-23T07:36:56.059Z,25.27
2018-12-23T07:39:24.230Z,20.43
2018-12-23T07:41:52.505Z,21.70
2018-12-23T07:44:20.788Z,26.47
2018-12-23T07:46:49.106Z,23.50
2018-12-23T07:49:17.313Z,23.33
2018-12-23T07:51:45.533Z,21.60
2018-12-23T07:54:13.912Z,20.50
2018-12-23T07:56:42.084Z,18.20
2018-12-23T07:59:10.365Z,16.93
2018-12-23T08:01:38.683Z,20.10
2018-12-23T08:04:06.932Z,15.00
2018-12-23T08:06:35.167Z,16.20
2018-12-23T08:09:05.031Z,16.07
2018-12-23T08:11:33.253Z,18.67
2018-12-23T08:14:02.141Z,16.40
2018-12-23T08:16:30.410Z,19.30
2018-12-23T08:18:58.592Z,16.20
2018-12-23T08:21:26.856Z,18.50
2018-12-23T08:23:55.014Z,16.53
2018-12-23T08:26:23.437Z,12.43
2018-12-23T08:28:51.730Z,15.10
2018-12-23T08:31:20.050Z,15.90
2018-12-23T08:33:48.305Z,14.57
2018-12-23T08:36:16.526Z,13.13
2018-12-23T08:38:44.730Z,10.70
2018-12-23T08:41:14.628Z,15.43
2018-12-23T08:43:42.819Z,15.37
2018-12-23T08:46:11.126Z,10.63
2018-12-23T08:48:39.336Z,12.20
2018-12-23T08:51:07.605Z,9.50
2018-12-23T08:53:35.884Z,14.27
2018-12-23T08:56:04.432Z,14.10
2018-12-23T08:58:32.744Z,13.00
2018-12-23T09:01:01.084Z,10.60
2018-12-23T09:03:29.392Z,10.87
2018-12-23T09:05:57.598Z,12.30
2018-12-23T09:08:25.810Z,17.37
2018-12-23T09:10:54.064Z,20.53
2018-12-23T09:13:22.331Z,14.17
2018-12-23T09:15:50.552Z,15.20
2018-12-23T09:18:19.435Z,14.50
2018-12-23T09:20:48.235Z,10.70
2018-12-23T09:23:16.459Z,7.57
2018-12-23T09:25:44.788Z,11.60
2018-12-23T09:28:12.954Z,9.67
2018-12-23T09:30:41.155Z,9.80
2018-12-23T09:33:09.350Z,10.23
2018-12-23T09:35:37.575Z,11.03
2018-12-23T09:38:05.765Z,9.40
2018-12-23T09:40:34.060Z,11.37
2018-12-23T09:43:04.112Z,11.43
2018-12-23T09:45:32.329Z,12.40
2018-12-23T09:48:00.636Z,10.70
2018-12-23T09:50:28.968Z,9.70
2018-12-23T09:52:57.312Z,10.27
2018-12-23T09:55:25.591Z,7.80
2018-12-23T09:57:53.808Z,9.40
2018-12-23T10:00:22.160Z,9.43
2018-12-23T10:02:50.388Z,8.33
2018-12-23T10:05:18.612Z,10.83
2018-12-23T10:07:47.904Z,11.20
2018-12-23T10:10:16.086Z,9.93
2018-12-23T10:12:44.428Z,11.60
2018-12-23T10:15:12.656Z,11.17
2018-12-23T10:17:41.008Z,11.17
2018-12-23T10:20:09.350Z,12.10
2018-12-23T10:22:37.624Z,11.90
2018-12-23T10:25:07.172Z,10.73
2018-12-23T10:30:30.096Z,12.20
2018-12-23T10:32:58.869Z,13.97
2018-12-23T10:35:27.077Z,12.77
2018-12-23T10:37:55.299Z,13.37
2018-12-23T10:40:23.601Z,11.33
2018-12-23T10:42:51.975Z,12.30
2018-12-23T10:45:20.209Z,15.00
2018-12-23T10:47:48.678Z,10.40
2018-12-23T10:50:16.953Z,8.50
2018-12-23T10:52:45.571Z,15.20
2018-12-23T10:55:13.857Z,5.20
2018-12-23T10:57:42.356Z,9.17
2018-12-23T11:00:13.905Z,7.70
2018-12-23T11:02:42.493Z,9.70
2018-12-23T11:05:13.091Z,8.30
2018-12-23T11:07:42.623Z,10.37
2018-12-23T11:10:11.887Z,7.50
2018-12-23T11:12:40.209Z,8.20
2018-12-23T11:15:08.613Z,10.40
2018-12-23T11:17:36.848Z,8.40
2018-12-23T11:20:06.356Z,9.33
2018-12-23T11:22:34.727Z,9.47
2018-12-23T11:25:03.127Z,10.17
2018-12-23T11:27:31.331Z,8.27
2018-12-23T11:29:59.617Z,10.43
2018-12-23T11:32:27.988Z,11.33
2018-12-23T11:34:56.221Z,10.57
2018-12-23T11:37:24.381Z,14.27
2018-12-23T11:39:52.540Z,15.67
2018-12-23T11:42:20.897Z,13.27
2018-12-23T11:44:49.168Z,9.50
2018-12-23T11:47:17.389Z,14.47
2018-12-23T11:49:45.626Z,11.80
2018-12-23T11:52:13.880Z,16.60
2018-12-23T11:54:42.062Z,15.93
2018-12-23T11:57:10.329Z,9.20
2018-12-23T11:59:38.671Z,12.40
2018-12-23T12:02:15.082Z,12.90
2018-12-23T12:04:37.277Z,9.63
2018-12-23T12:07:05.494Z,23.47
2018-12-23T12:09:33.737Z,12.63
2018-12-23T12:12:01.971Z,13.60
2018-12-23T12:14:30.229Z,11.43
2018-12-23T12:16:58.468Z,15.07
2018-12-23T12:19:26.693Z,14.00
2018-12-23T12:21:54.894Z,13.13
2018-12-23T12:24:23.157Z,9.70
2018-12-23T12:26:51.337Z,15.03
2018-12-23T12:29:19.647Z,16.83
2018-12-23T12:31:48.003Z,13.53
2018-12-23T12:34:16.272Z,12.20
2018-12-23T12:36:44.679Z,12.60
2018-12-23T12:39:12.928Z,15.73
2018-12-23T12:41:41.214Z,18.23
2018-12-23T12:44:09.502Z,12.60
2018-12-23T12:46:37.678Z,9.70
2018-12-23T12:49:05.999Z,13.43
2018-12-23T12:51:34.354Z,17.13
2018-12-23T12:54:02.566Z,10.53
2018-12-23T12:56:30.860Z,7.50
2018-12-23T12:58:59.084Z,17.53
2018-12-23T13:01:27.342Z,18.73
2018-12-23T13:03:55.537Z,9.23
2018-12-23T13:06:23.791Z,10.90
2018-12-23T13:09:00.301Z,15.43
2018-12-23T13:11:22.356Z,11.20
2018-12-23T13:16:26.304Z,12.20
2018-12-23T13:18:54.585Z,8.30
2018-12-23T13:21:22.796Z,14.50
2018-12-23T13:23:50.967Z,10.90
2018-12-23T13:26:19.179Z,15.07
2018-12-23T13:28:47.390Z,10.83
2018-12-23T13:31:15.619Z,11.20
2018-12-23T13:33:43.926Z,15.43
2018-12-23T13:36:12.264Z,17.67
2018-12-23T13:38:40.529Z,22.80
2018-12-23T13:42:39.162Z,15.60
2018-12-23T13:47:22.069Z,20.00
2018-12-23T13:50:30.754Z,19.17
2018-12-23T13:53:24.686Z,17.33
2018-12-23T13:56:07.100Z,20.90
2018-12-23T13:58:54.303Z,17.73
2018-12-23T14:01:33.310Z,21.27
2018-12-23T14:04:12.937Z,22.90
2018-12-23T14:07:06.315Z,22.83
2018-12-23T14:10:44.314Z,16.00
2018-12-23T14:13:12.511Z,20.70
2018-12-23T14:15:40.719Z,22.10
2018-12-23T14:18:09.010Z,22.03
2018-12-23T14:20:37.340Z,19.30
2018-12-23T14:23:05.496Z,19.73
2018-12-23T14:25:33.798Z,22.80
2018-12-23T14:28:02.064Z,23.13
2018-12-23T14:30:30.225Z,21.23
2018-12-23T14:32:58.582Z,27.77
2018-12-23T14:35:26.844Z,16.00
2018-12-23T14:37:55.214Z,12.73
2018-12-23T14:40:23.468Z,14.73
2018-12-23T14:43:06.431Z,14.00
2018-12-23T14:45:34.663Z,8.80
2018-12-23T14:48:02.993Z,5.20
2018-12-23T14:50:31.163Z,6.90
2018-12-23T14:52:59.463Z,3.43
2018-12-23T14:55:27.753Z,7.60
2018-12-23T14:57:56.004Z,7.90
2018-12-23T15:00:24.399Z,6.30
2018-12-23T15:02:52.624Z,10.73
2018-12-23T15:05:54.479Z,9.57
2018-12-23T15:08:23.852Z,8.50
2018-12-23T15:11:12.247Z,6.70
2018-12-23T15:14:00.638Z,7.63
2018-12-23T15:16:49.029Z,12.85
2018-12-23T15:19:37.409Z,10.65
2018-12-23T15:22:25.807Z,19.25
2018-12-23T15:25:14.183Z,24.83
2018-12-23T15:28:02.546Z,18.70
2018-12-23T15:30:31.854Z,20.80
2018-12-23T15:33:20.292Z,22.93
2018-12-23T15:36:08.687Z,25.53
2018-12-23T15:38:57.239Z,36.58
2018-12-23T15:41:45.684Z,31.60
2018-12-23T15:44:34.065Z,31.53
2018-12-23T15:47:22.615Z,21.55
2018-12-23T15:50:11.122Z,22.83
2018-12-23T15:52:59.765Z,28.43
2018-12-23T15:55:48.266Z,19.37
2018-12-23T15:58:36.694Z,24.37
2018-12-23T16:01:25.162Z,22.83
2018-12-23T16:04:13.570Z,12.20
2018-12-23T16:07:01.967Z,11.53
2018-12-23T16:09:51.283Z,16.63
2018-12-23T16:12:40.411Z,15.37
2018-12-23T16:15:28.860Z,12.90
2018-12-23T16:18:17.408Z,12.10
2018-12-23T16:21:05.840Z,10.43
2018-12-23T16:23:54.203Z,9.70
2018-12-23T16:26:42.735Z,13.40
2018-12-23T16:29:31.162Z,17.30
2018-12-23T16:32:12.080Z,14.93
2018-12-23T16:34:53.094Z,11.23
2018-12-23T16:37:34.416Z,13.20
2018-12-23T16:40:15.788Z,15.03
2018-12-23T16:42:57.004Z,17.07
2018-12-23T16:45:38.012Z,15.80
2018-12-23T16:48:19.285Z,22.07
2018-12-23T16:51:00.045Z,20.73
2018-12-23T16:53:40.900Z,23.23
2018-12-23T16:56:21.888Z,22.57
2018-12-23T16:59:03.071Z,18.80
2018-12-23T17:01:43.852Z,19.30
2018-12-23T17:04:25.006Z,25.33
2018-12-23T17:07:05.844Z,26.53
2018-12-23T17:09:46.916Z,34.30
2018-12-23T17:12:28.226Z,22.87
2018-12-23T17:15:09.020Z,21.90
2018-12-23T17:17:50.444Z,22.80
2018-12-23T17:20:31.342Z,24.50
2018-12-23T17:23:12.328Z,21.80
2018-12-23T17:25:51.818Z,19.40
2018-12-23T17:28:40.192Z,24.73
2018-12-23T17:31:21.424Z,23.57
2018-12-23T17:34:02.132Z,19.75
2018-12-23T17:36:43.008Z,25.93
2018-12-23T17:39:24.459Z,24.90
2018-12-23T17:44:51.877Z,26.70
2018-12-23T17:47:21.296Z,27.03
2018-12-23T17:50:10.520Z,18.30
2018-12-23T17:52:58.909Z,20.77
2018-12-23T17:55:48.118Z,21.63
2018-12-23T17:58:36.637Z,21.60
2018-12-23T18:01:25.067Z,22.77
2018-12-23T18:04:13.598Z,21.33
2018-12-23T18:09:57.066Z,28.30
2018-12-23T18:12:49.245Z,29.40
2018-12-23T18:15:37.817Z,19.42
2018-12-23T18:18:26.617Z,25.00
2018-12-23T18:21:15.127Z,21.27
2018-12-23T18:24:03.537Z,32.40
2018-12-23T18:26:52.269Z,31.80
2018-12-23T18:29:40.845Z,25.97
2018-12-23T18:32:10.227Z,23.45
2018-12-23T18:34:58.935Z,27.80
2018-12-23T18:37:47.517Z,21.00
2018-12-23T18:40:35.945Z,27.43
2018-12-23T18:43:24.389Z,20.57
2018-12-23T18:46:12.744Z,24.93
2018-12-23T18:49:01.249Z,30.67
2018-12-23T18:51:30.685Z,31.50
2018-12-23T18:54:00.168Z,20.60
2018-12-23T18:56:49.996Z,31.50
2018-12-23T18:59:40.758Z,22.97
2018-12-23T19:02:48.322Z,22.10
2018-12-23T19:05:36.792Z,22.87
2018-12-23T19:08:44.289Z,23.77
2018-12-23T19:11:51.785Z,38.80
2018-12-23T19:14:54.911Z,28.50
2018-12-23T19:18:02.420Z,26.00
2018-12-23T19:21:09.938Z,27.73
2018-12-23T19:24:17.646Z,33.03
2018-12-23T19:27:25.126Z,25.40
2018-12-23T19:30:18.954Z,29.63
2018-12-23T19:33:26.481Z,31.33
2018-12-23T19:36:34.045Z,25.30
2018-12-23T19:39:34.108Z,24.40
2018-12-23T19:42:41.668Z,21.93
2018-12-23T19:45:49.188Z,25.50
2018-12-23T19:48:56.746Z,26.67
2018-12-23T19:51:50.815Z,25.50
2018-12-23T19:54:58.302Z,32.50
2018-12-23T19:58:05.825Z,33.43
2018-12-23T20:01:13.322Z,28.30
2018-12-23T20:03:54.076Z,28.30
2018-12-23T20:06:35.489Z,24.90
2018-12-23T20:09:16.976Z,27.70
2018-12-23T20:11:57.940Z,27.58
2018-12-23T20:14:39.089Z,28.93
2018-12-23T20:17:20.102Z,28.87
2018-12-23T20:20:01.594Z,25.33
2018-12-23T20:23:26.952Z,26.82
2018-12-23T20:29:21.918Z,30.27
2018-12-23T20:32:29.600Z,27.33
2018-12-23T20:35:37.190Z,28.50
2018-12-23T20:38:40.567Z,31.67
2018-12-23T20:41:48.103Z,32.27
2018-12-23T20:44:55.657Z,27.00
2018-12-23T20:48:03.275Z,34.93
2018-12-23T20:51:10.919Z,34.63
2018-12-23T20:54:18.411Z,32.63
2018-12-23T20:57:25.951Z,25.17
2018-12-23T21:00:36.578Z,33.90
2018-12-23T21:03:44.106Z,31.97
2018-12-23T21:06:25.724Z,26.23
2018-12-23T21:09:30.650Z,29.70
2018-12-23T21:12:28.310Z,31.70
2018-12-23T21:15:35.774Z,28.63
2018-12-23T21:18:43.367Z,34.53
2018-12-23T21:21:50.898Z,23.07
2018-12-23T21:24:58.408Z,39.40
2018-12-23T21:28:05.931Z,26.20
2018-12-23T21:31:13.402Z,31.47
2018-12-23T21:34:21.029Z,29.70
2018-12-23T21:37:28.544Z,37.23
2018-12-23T21:40:36.079Z,35.23
2018-12-23T21:43:44.408Z,31.77
2018-12-23T21:46:38.574Z,36.70
2018-12-23T21:49:46.084Z,30.47
2018-12-23T21:52:53.220Z,27.13
2018-12-23T21:55:34.138Z,29.82
2018-12-23T22:04:00.542Z,32.70
2018-12-23T22:06:42.946Z,28.77
2018-12-23T22:09:24.354Z,26.03
2018-12-23T22:12:13.725Z,26.70
2018-12-23T22:14:55.486Z,33.27
2018-12-23T22:17:37.146Z,28.57
2018-12-23T22:38:01.755Z,24.43
2018-12-23T22:40:42.720Z,27.97
2018-12-23T22:43:23.664Z,35.57
2018-12-23T22:45:53.055Z,30.13
2018-12-23T22:48:41.561Z,30.70
2018-12-23T22:51:30.067Z,28.87
2018-12-23T22:54:18.526Z,24.40
2018-12-23T22:57:06.887Z,26.63
2018-12-23T22:59:55.389Z,22.00
2018-12-23T23:02:43.953Z,23.67
2018-12-23T23:05:32.337Z,22.60
2018-12-23T23:08:20.830Z,34.70
2018-12-23T23:11:09.222Z,31.03
2018-12-23T23:13:57.607Z,29.90
2018-12-23T23:16:46.137Z,29.70
2018-12-23T23:19:34.543Z,35.60
2018-12-23T23:22:22.920Z,25.17
2018-12-23T23:25:03.907Z,26.93
2018-12-23T23:27:45.101Z,25.77
2018-12-23T23:30:26.011Z,23.53
2018-12-23T23:33:09.073Z,27.83
2018-12-23T23:35:49.965Z,24.80
2018-12-23T23:38:31.665Z,20.37
2018-12-23T23:41:12.651Z,20.50
2018-12-23T23:43:53.567Z,13.60
2018-12-23T23:46:34.834Z,15.70
2018-12-23T23:49:15.989Z,14.18
2018-12-23T23:51:57.293Z,13.10
2018-12-23T23:54:38.447Z,10.60
2018-12-23T23:57:19.660Z,13.77
